aviador You're here:

LFSD Decoded Metar

DIJON in FRANCE
Report Time2018-07-22 07:00:00
UTC Time2018-07-22 07:13:53
Flight Rules vfr VFR
WindVRB at 03 kt
Visibility9999 m
Phenomena:N/A
Clouds:N/A
Expected CloudBase > 3,200 ft AGL from Temp-Dew spread
CeilingNone
Temp21°C (ISA +7)
Dew Point13°C (60% RH)
AAT20.8°C
QNH1016 hPa
Density Alt1,719 ft
Elevation745 ft
Report Wrong Elevation
Raw Report
LFSD 220700Z AUTO VRB03KT CAVOK 21/13 Q1016=

Extra information for LFSD:More info

Metar Taf Metar & Taf Last 4 Metars F.Rules Stats Wind Profile Meteogram Temp Stats Airport Information Weather charts Add Link Nearby VenuesMetar ALERT Operation Metar Decoded Social comments